createdAt,value
2018-01-04T00:01:02.226Z,52.70
2018-01-04T00:03:29.842Z,51.80
2018-01-04T00:05:57.453Z,51.80
2018-01-04T00:08:25.090Z,52.10
2018-01-04T00:10:52.698Z,52.50
2018-01-04T00:13:20.332Z,52.00
2018-01-04T00:15:47.941Z,52.10
2018-01-04T00:18:15.549Z,53.30
2018-01-04T00:20:43.186Z,54.20
2018-01-04T00:23:10.798Z,54.90
2018-01-04T00:25:38.438Z,54.10
2018-01-04T00:28:06.042Z,54.70
2018-01-04T00:30:33.650Z,55.10
2018-01-04T00:33:01.293Z,55.10
2018-01-04T00:35:28.913Z,55.80
2018-01-04T00:37:56.558Z,55.30
2018-01-04T00:40:24.925Z,54.20
2018-01-04T00:42:52.529Z,54.10
2018-01-04T00:45:20.227Z,55.10
2018-01-04T00:47:48.573Z,53.40
2018-01-04T00:50:16.209Z,53.30
2018-01-04T00:52:43.834Z,53.70
2018-01-04T00:55:12.220Z,53.50
2018-01-04T00:57:40.621Z,53.70
2018-01-04T01:00:08.997Z,53.70
2018-01-04T01:02:36.634Z,53.80
2018-01-04T01:05:04.245Z,53.10
2018-01-04T01:07:31.849Z,53.70
2018-01-04T01:09:59.488Z,52.60
2018-01-04T01:12:27.098Z,52.30
2018-01-04T01:14:54.737Z,53.30
2018-01-04T01:17:22.341Z,52.50
2018-01-04T01:19:49.945Z,53.50
2018-01-04T01:22:17.589Z,53.40
2018-01-04T01:24:45.202Z,53.70
2018-01-04T01:27:12.840Z,54.10
2018-01-04T01:29:40.445Z,54.40
2018-01-04T01:32:08.064Z,53.10
2018-01-04T01:34:36.470Z,52.40
2018-01-04T01:37:04.073Z,52.30
2018-01-04T01:39:31.713Z,51.60
2018-01-04T01:42:00.100Z,52.40
2018-01-04T01:44:28.481Z,51.90
2018-01-04T01:46:56.893Z,50.80
2018-01-04T01:49:24.498Z,50.80
2018-01-04T01:51:52.144Z,51.30
2018-01-04T01:54:19.755Z,50.70
2018-01-04T01:56:47.357Z,51.20
2018-01-04T01:59:14.999Z,50.50
2018-01-04T02:01:42.606Z,51.20
2018-01-04T02:04:10.217Z,50.10
2018-01-04T02:06:37.857Z,51.60
2018-01-04T02:09:05.467Z,51.00
2018-01-04T02:11:33.074Z,50.60
2018-01-04T02:14:00.712Z,50.40
2018-01-04T02:16:28.332Z,50.50
2018-01-04T02:19:07.907Z,50.50
2018-01-04T02:21:47.413Z,50.80
2018-01-04T02:24:26.811Z,51.10
2018-01-04T02:27:06.289Z,50.60
2018-01-04T02:29:45.741Z,51.20
2018-01-04T02:32:25.297Z,51.40
2018-01-04T02:35:04.775Z,51.80
2018-01-04T02:37:44.208Z,52.60
2018-01-04T02:40:23.684Z,52.30
2018-01-04T02:43:03.186Z,52.30
2018-01-04T02:45:54.109Z,51.50
2018-01-04T02:48:22.485Z,52.60
2018-01-04T02:50:50.098Z,52.60
2018-01-04T02:53:17.746Z,51.50
2018-01-04T02:55:46.132Z,53.40
2018-01-04T02:58:13.779Z,53.40
2018-01-04T03:00:41.392Z,53.60
2018-01-04T03:03:09.763Z,51.90
2018-01-04T03:05:37.398Z,51.90
2018-01-04T03:08:05.002Z,51.30
2018-01-04T03:10:32.637Z,49.70
2018-01-04T03:13:00.244Z,51.20
2018-01-04T03:15:27.853Z,50.20
2018-01-04T03:17:56.254Z,50.00
2018-01-04T03:20:23.862Z,50.00
2018-01-04T03:22:57.236Z,50.00
2018-01-04T03:25:30.395Z,50.20
2018-01-04T03:28:03.586Z,50.00
2018-01-04T03:30:36.805Z,50.40
2018-01-04T03:33:10.081Z,50.80
2018-01-04T03:35:43.307Z,51.00
2018-01-04T03:38:16.579Z,50.40
2018-01-04T03:40:49.941Z,51.10
2018-01-04T03:43:23.193Z,50.40
2018-01-04T03:45:56.585Z,50.70
2018-01-04T03:48:27.861Z,50.00
2018-01-04T03:51:01.209Z,49.90
2018-01-04T03:53:34.462Z,50.10
2018-01-04T03:56:08.520Z,51.40
2018-01-04T03:58:41.738Z,51.40
2018-01-04T04:01:14.955Z,51.20
2018-01-04T04:03:42.598Z,50.60
2018-01-04T04:06:15.982Z,51.50
2018-01-04T04:08:44.394Z,50.90
2018-01-04T04:11:12.103Z,50.80
2018-01-04T04:13:39.715Z,50.90
2018-01-04T04:16:08.127Z,50.40
2018-01-04T04:18:35.741Z,50.30
2018-01-04T04:21:03.385Z,50.60
2018-01-04T04:23:31.000Z,49.80
2018-01-04T04:25:58.610Z,49.90
2018-01-04T04:28:27.049Z,48.90
2018-01-04T04:30:54.669Z,49.00
2018-01-04T04:33:23.073Z,50.00
2018-01-04T04:35:51.441Z,49.50
2018-01-04T04:38:19.046Z,49.50
2018-01-04T04:40:46.681Z,49.90
2018-01-04T04:43:14.294Z,48.80
2018-01-04T04:45:41.933Z,48.20
2018-01-04T04:48:09.554Z,48.70
2018-01-04T04:50:37.161Z,48.40
2018-01-04T04:55:37.425Z,47.70
2018-01-04T04:58:05.076Z,47.80
2018-01-04T05:00:32.683Z,47.00
2018-01-04T05:03:00.297Z,46.60
2018-01-04T05:05:27.946Z,47.60
2018-01-04T05:07:55.549Z,47.40
2018-01-04T05:10:23.194Z,46.70
2018-01-04T05:12:50.806Z,47.00
2018-01-04T05:15:18.423Z,48.10
2018-01-04T05:17:46.514Z,47.60
2018-01-04T05:20:14.116Z,46.70
2018-01-04T05:22:42.519Z,47.10
2018-01-04T05:25:10.129Z,46.90
2018-01-04T05:27:37.737Z,47.50
2018-01-04T05:30:05.383Z,48.50
2018-01-04T05:32:32.990Z,49.30
2018-01-04T05:35:00.629Z,49.30
2018-01-04T05:37:28.238Z,49.50
2018-01-04T05:39:55.878Z,49.20
2018-01-04T05:42:23.516Z,49.40
2018-01-04T05:44:51.124Z,49.00
2018-01-04T05:47:18.791Z,50.00
2018-01-04T05:49:46.408Z,49.50
2018-01-04T05:52:14.019Z,49.00
2018-01-04T05:54:41.673Z,49.10
2018-01-04T05:57:10.053Z,58.10
2018-01-04T05:59:38.469Z,62.50
2018-01-04T06:02:06.074Z,62.50
2018-01-04T06:04:33.705Z,67.80
2018-01-04T06:07:01.602Z,70.00
2018-01-04T06:09:29.240Z,73.10
2018-01-04T06:11:56.879Z,73.60
2018-01-04T06:14:24.482Z,75.00
2018-01-04T06:16:52.093Z,76.80
2018-01-04T06:19:19.726Z,79.40
2018-01-04T06:21:47.349Z,82.10
2018-01-04T06:24:15.003Z,80.40
2018-01-04T06:26:43.377Z,77.60
2018-01-04T06:29:10.984Z,77.60
2018-01-04T06:31:38.622Z,77.50
2018-01-04T06:34:06.238Z,77.10
2018-01-04T06:36:33.883Z,75.80
2018-01-04T06:39:01.589Z,74.00
2018-01-04T06:41:29.200Z,73.40
2018-01-04T06:43:56.841Z,69.50
2018-01-04T06:46:24.444Z,70.60
2018-01-04T06:48:52.105Z,69.90
2018-01-04T06:51:19.714Z,68.60
2018-01-04T06:53:47.334Z,65.50
2018-01-04T06:56:14.969Z,67.20
2018-01-04T06:58:43.341Z,63.70
2018-01-04T07:01:10.985Z,63.50
2018-01-04T07:03:38.589Z,60.90
2018-01-04T07:06:06.197Z,59.70
2018-01-04T07:08:34.601Z,60.20
2018-01-04T07:11:02.207Z,60.20
2018-01-04T07:13:29.862Z,59.20
2018-01-04T07:15:57.469Z,57.70
2018-01-04T07:18:25.078Z,55.90
2018-01-04T07:20:53.476Z,56.30
2018-01-04T07:23:21.848Z,55.90
2018-01-04T07:25:49.486Z,55.90
2018-01-04T07:28:17.093Z,56.80
2018-01-04T07:30:44.706Z,56.90
2018-01-04T07:33:12.337Z,56.20
2018-01-04T07:35:39.936Z,56.20
2018-01-04T07:38:08.347Z,54.80
2018-01-04T07:40:35.965Z,54.80
2018-01-04T07:43:03.569Z,54.20
2018-01-04T07:45:31.978Z,54.60
2018-01-04T07:47:59.586Z,54.60
2018-01-04T07:50:27.222Z,54.50
2018-01-04T07:52:54.833Z,54.40
2018-01-04T07:55:22.433Z,54.80
2018-01-04T07:57:50.081Z,53.90
2018-01-04T08:00:17.698Z,53.40
2018-01-04T08:02:46.102Z,52.70
2018-01-04T08:05:14.476Z,52.20
2018-01-04T08:07:42.091Z,52.30
2018-01-04T08:10:09.729Z,52.00
2018-01-04T08:12:38.105Z,51.50
2018-01-04T08:15:05.746Z,51.50
2018-01-04T08:17:33.365Z,51.20
2018-01-04T08:20:01.741Z,50.90
2018-01-04T08:22:29.370Z,50.60
2018-01-04T08:24:56.979Z,50.60
2018-01-04T08:27:24.625Z,49.60
2018-01-04T08:29:52.232Z,50.00
2018-01-04T08:32:19.833Z,49.90
2018-01-04T08:34:48.246Z,47.80
2018-01-04T08:37:15.849Z,47.70
2018-01-04T08:39:43.485Z,48.70
2018-01-04T08:42:11.094Z,48.40
2018-01-04T08:44:38.702Z,47.10
2018-01-04T08:47:06.350Z,47.90
2018-01-04T08:49:33.961Z,46.70
2018-01-04T08:52:02.366Z,45.90
2018-01-04T08:54:30.734Z,45.00
2018-01-04T08:56:58.370Z,44.90
2018-01-04T08:59:26.009Z,46.30
2018-01-04T09:01:53.616Z,44.50
2018-01-04T09:04:21.250Z,45.60
2018-01-04T09:06:49.625Z,46.70
2018-01-04T09:09:17.234Z,46.60
2018-01-04T09:11:44.864Z,44.30
2018-01-04T09:14:12.477Z,44.70
2018-01-04T09:16:40.113Z,44.30
2018-01-04T09:19:07.721Z,42.90
2018-01-04T09:21:35.330Z,43.30
2018-01-04T09:24:02.963Z,43.40
2018-01-04T09:26:31.337Z,44.30
2018-01-04T09:28:58.973Z,44.30
2018-01-04T09:31:26.581Z,44.20
2018-01-04T09:33:54.331Z,44.10
2018-01-04T09:36:21.978Z,44.00
2018-01-04T09:38:49.599Z,42.10
2018-01-04T09:41:17.237Z,42.00
2018-01-04T09:43:44.844Z,41.30
2018-01-04T09:46:12.456Z,42.30
2018-01-04T09:48:40.093Z,42.30
2018-01-04T09:51:07.705Z,43.00
2018-01-04T09:53:35.346Z,42.00
2018-01-04T09:56:02.965Z,42.10
2018-01-04T09:58:30.583Z,41.70
2018-01-04T10:00:58.281Z,42.00
2018-01-04T10:03:26.649Z,40.90
2018-01-04T10:05:54.510Z,40.80
2018-01-04T10:08:21.925Z,40.60
2018-01-04T10:10:49.570Z,41.10
2018-01-04T10:13:17.211Z,39.70
2018-01-04T10:15:44.818Z,40.00
2018-01-04T10:18:12.463Z,39.70
2018-01-04T10:20:40.066Z,39.20
2018-01-04T10:23:07.664Z,38.90
2018-01-04T10:25:36.073Z,39.00
2018-01-04T10:28:03.688Z,39.00
2018-01-04T10:30:31.341Z,38.80
2018-01-04T10:32:58.941Z,39.60
2018-01-04T10:35:26.562Z,38.90
2018-01-04T10:37:54.205Z,39.90
2018-01-04T10:40:21.812Z,39.70
2018-01-04T10:42:49.453Z,39.40
2018-01-04T10:45:17.057Z,39.60
2018-01-04T10:47:45.429Z,38.20
2018-01-04T10:50:13.853Z,39.50
2018-01-04T10:52:41.464Z,39.00
2018-01-04T10:55:09.116Z,39.10
2018-01-04T10:57:36.779Z,38.40
2018-01-04T11:00:05.133Z,37.90
2018-01-04T11:02:32.772Z,37.90
2018-01-04T11:05:00.390Z,38.40
2018-01-04T11:07:28.798Z,38.40
2018-01-04T11:09:56.408Z,38.40
2018-01-04T11:12:24.017Z,38.60
2018-01-04T11:14:51.655Z,38.00
2018-01-04T11:17:19.265Z,38.80
2018-01-04T11:19:46.899Z,38.10
2018-01-04T11:22:14.505Z,38.30
2018-01-04T11:24:42.120Z,37.80
2018-01-04T11:27:09.753Z,38.60
2018-01-04T11:29:37.397Z,37.70
2018-01-04T11:32:05.055Z,37.90
2018-01-04T11:34:32.663Z,38.30
2018-01-04T11:37:00.269Z,38.60
2018-01-04T11:39:27.933Z,37.50
2018-01-04T11:41:55.542Z,37.70
2018-01-04T11:44:23.187Z,38.00
2018-01-04T11:46:51.605Z,37.60
2018-01-04T11:49:19.225Z,37.60
2018-01-04T11:51:46.865Z,37.10
2018-01-04T11:54:14.473Z,37.40
2018-01-04T11:56:42.132Z,38.20
2018-01-04T11:59:09.757Z,37.00
2018-01-04T12:01:38.124Z,35.30
2018-01-04T12:04:05.772Z,35.20
2018-01-04T12:06:33.392Z,35.50
2018-01-04T12:09:01.834Z,36.30
2018-01-04T12:11:29.465Z,36.30
2018-01-04T12:13:57.837Z,36.40
2018-01-04T12:16:25.596Z,36.40
2018-01-04T12:18:53.205Z,36.40
2018-01-04T12:21:21.604Z,36.60
2018-01-04T12:23:49.987Z,35.70
2018-01-04T12:26:18.380Z,35.20
2018-01-04T12:28:46.776Z,35.80
2018-01-04T12:31:15.148Z,34.80
2018-01-04T12:33:42.794Z,34.80
2018-01-04T12:36:10.421Z,36.40
2018-01-04T12:38:38.796Z,35.80
2018-01-04T12:41:07.233Z,35.80
2018-01-04T12:43:34.926Z,35.80
2018-01-04T12:46:02.560Z,35.40
2018-01-04T12:48:30.164Z,35.10
2018-01-04T12:50:57.821Z,35.40
2018-01-04T12:53:26.293Z,35.00
2018-01-04T12:55:54.842Z,35.40
2018-01-04T12:58:22.496Z,35.40
2018-01-04T13:00:50.113Z,35.90
2018-01-04T13:03:17.729Z,35.80
2018-01-04T13:05:45.369Z,36.40
2018-01-04T13:08:12.985Z,35.40
2018-01-04T13:10:40.641Z,35.50
2018-01-04T13:13:08.245Z,36.00
2018-01-04T13:15:35.850Z,35.50
2018-01-04T13:18:03.489Z,36.30
2018-01-04T13:20:31.098Z,35.90
2018-01-04T13:22:58.738Z,36.20
2018-01-04T13:25:26.349Z,36.30
2018-01-04T13:27:53.961Z,36.00
2018-01-04T13:30:21.598Z,35.90
2018-01-04T13:32:49.202Z,36.30
2018-01-04T13:35:16.846Z,36.10
2018-01-04T13:37:44.449Z,36.70
2018-01-04T13:40:12.054Z,36.50
2018-01-04T13:42:39.698Z,37.00
2018-01-04T13:45:07.301Z,37.20
2018-01-04T13:47:34.941Z,36.70
2018-01-04T13:50:03.337Z,37.10
2018-01-04T13:52:30.946Z,37.10
2018-01-04T13:54:58.636Z,37.00
2018-01-04T13:57:26.315Z,37.50
2018-01-04T13:59:53.929Z,37.00
2018-01-04T14:02:22.300Z,37.70
2018-01-04T14:04:49.913Z,37.80
2018-01-04T14:07:17.581Z,37.80
2018-01-04T14:09:45.192Z,37.50
2018-01-04T14:12:12.838Z,37.70
2018-01-04T14:14:40.450Z,37.30
2018-01-04T14:17:08.065Z,37.60
2018-01-04T14:19:35.710Z,38.20
2018-01-04T14:22:03.318Z,37.10
2018-01-04T14:24:30.962Z,37.20
2018-01-04T14:26:58.584Z,37.50
2018-01-04T14:29:26.193Z,37.50
2018-01-04T14:31:53.832Z,37.70
2018-01-04T14:34:21.449Z,37.90
2018-01-04T14:36:49.089Z,37.80
2018-01-04T14:39:16.705Z,38.10
2018-01-04T14:41:44.317Z,38.40
2018-01-04T14:44:11.961Z,38.60
2018-01-04T14:46:40.414Z,39.00
2018-01-04T14:49:08.061Z,38.90
2018-01-04T14:51:35.698Z,39.00
2018-01-04T14:54:03.310Z,39.00
2018-01-04T14:56:30.948Z,38.90
2018-01-04T14:58:58.554Z,38.50
2018-01-04T15:01:26.205Z,38.50
2018-01-04T15:03:54.579Z,38.60
2018-01-04T15:06:22.207Z,38.50
2018-01-04T15:08:49.863Z,38.30
2018-01-04T15:11:17.471Z,38.40
2018-01-04T15:13:45.114Z,38.70
2018-01-04T15:16:12.722Z,38.40
2018-01-04T15:18:40.333Z,38.40
2018-01-04T15:21:08.740Z,38.00
2018-01-04T15:23:37.117Z,37.80
2018-01-04T15:26:04.758Z,37.80
2018-01-04T15:28:32.365Z,37.50
2018-01-04T15:31:00.780Z,37.60
2018-01-04T15:33:28.417Z,37.50
2018-01-04T15:35:56.026Z,37.30
2018-01-04T15:38:23.670Z,37.70
2018-01-04T15:40:51.282Z,37.00
2018-01-04T15:43:18.889Z,37.00
2018-01-04T15:45:46.531Z,36.70
2018-01-04T15:48:14.141Z,37.20
2018-01-04T15:50:41.798Z,37.40
2018-01-04T15:53:09.397Z,37.30
2018-01-04T15:55:37.015Z,37.40
2018-01-04T15:58:04.701Z,38.30
2018-01-04T16:00:32.309Z,37.20
2018-01-04T16:02:59.954Z,37.30
2018-01-04T16:05:27.565Z,37.00
2018-01-04T16:07:55.237Z,36.40
2018-01-04T16:10:22.872Z,35.80
2018-01-04T16:12:50.537Z,36.20
2018-01-04T16:15:18.170Z,36.40
2018-01-04T16:17:45.777Z,36.00
2018-01-04T16:20:14.147Z,36.30
2018-01-04T16:22:41.803Z,36.30
2018-01-04T16:25:09.419Z,36.10
2018-01-04T16:27:37.901Z,36.50
2018-01-04T16:30:06.274Z,36.10
2018-01-04T16:32:33.946Z,36.10
2018-01-04T16:35:01.594Z,36.40
2018-01-04T16:37:29.204Z,36.10
2018-01-04T16:40:01.870Z,35.60
2018-01-04T16:42:29.533Z,35.80
2018-01-04T16:44:57.200Z,35.40
2018-01-04T16:47:24.853Z,35.60
2018-01-04T16:49:52.497Z,36.20
2018-01-04T16:52:20.133Z,36.30
2018-01-04T16:54:47.811Z,37.40
2018-01-04T16:57:15.498Z,37.20
2018-01-04T16:59:43.321Z,37.70
2018-01-04T17:02:11.690Z,38.60
2018-01-04T17:04:39.329Z,38.60
2018-01-04T17:07:06.938Z,39.30
2018-01-04T17:09:34.577Z,40.60
2018-01-04T17:12:02.354Z,41.70
2018-01-04T17:14:29.963Z,42.20
2018-01-04T17:16:58.369Z,43.50
2018-01-04T17:19:26.749Z,44.40
2018-01-04T17:21:54.429Z,44.40
2018-01-04T17:24:22.905Z,45.00
2018-01-04T17:26:51.343Z,45.20
2018-01-04T17:29:18.981Z,45.20
2018-01-04T17:31:46.594Z,46.30
2018-01-04T17:34:14.201Z,45.10
2018-01-04T17:36:42.341Z,45.80
2018-01-04T17:39:09.945Z,45.10
2018-01-04T17:41:37.594Z,44.70
2018-01-04T17:44:05.274Z,44.30
2018-01-04T17:46:32.890Z,44.60
2018-01-04T17:49:00.538Z,45.40
2018-01-04T17:51:28.141Z,45.30
2018-01-04T17:53:55.781Z,45.50
2018-01-04T17:56:23.397Z,45.10
2018-01-04T17:58:51.009Z,45.00
2018-01-04T18:01:18.653Z,44.90
2018-01-04T18:03:46.297Z,44.70
2018-01-04T18:06:13.955Z,44.70
2018-01-04T18:08:41.586Z,45.00
2018-01-04T18:11:10.021Z,45.50
2018-01-04T18:13:37.691Z,45.50
2018-01-04T18:16:05.308Z,45.30
2018-01-04T18:18:32.945Z,45.80
2018-01-04T18:21:00.567Z,46.30
2018-01-04T18:23:28.183Z,45.60
2018-01-04T18:25:55.849Z,46.10
2018-01-04T18:28:23.466Z,45.70
2018-01-04T18:30:51.105Z,45.80
2018-01-04T18:33:18.709Z,46.30
2018-01-04T18:35:46.321Z,46.40
2018-01-04T18:38:14.737Z,47.10
2018-01-04T18:40:42.349Z,47.00
2018-01-04T18:43:09.993Z,47.40
2018-01-04T18:45:37.597Z,47.50
2018-01-04T18:48:05.206Z,47.20
2018-01-04T18:50:32.840Z,47.40
2018-01-04T18:53:00.474Z,47.70
2018-01-04T18:55:28.128Z,48.80
2018-01-04T18:57:56.513Z,50.80
2018-01-04T19:00:24.123Z,50.70
2018-01-04T19:02:51.769Z,51.40
2018-01-04T19:05:20.142Z,51.90
2018-01-04T19:07:47.803Z,51.90
2018-01-04T19:10:15.418Z,52.30
2018-01-04T19:12:43.793Z,55.30
2018-01-04T19:15:11.433Z,55.30
2018-01-04T19:17:39.044Z,58.60
2018-01-04T19:20:07.456Z,63.60
2018-01-04T19:22:35.067Z,63.00
2018-01-04T19:25:02.690Z,69.00
2018-01-04T19:27:31.112Z,77.50
2018-01-04T19:29:58.721Z,77.60
2018-01-04T19:32:26.389Z,87.60
2018-01-04T19:34:53.998Z,90.60
2018-01-04T19:37:21.613Z,94.50
2018-01-04T19:39:49.245Z,95.80
2018-01-04T19:42:16.858Z,97.90
2018-01-04T19:44:44.499Z,99.50
2018-01-04T19:47:12.877Z,99.90
2018-01-04T19:49:40.507Z,99.90
2018-01-04T19:52:08.267Z,99.90
2018-01-04T19:54:35.873Z,99.90
2018-01-04T19:57:03.509Z,99.90
2018-01-04T19:59:31.113Z,99.90
2018-01-04T20:01:58.716Z,99.90
2018-01-04T20:04:26.344Z,99.90
2018-01-04T20:06:53.954Z,99.90
2018-01-04T20:09:21.603Z,99.90
2018-01-04T20:11:49.217Z,99.90
2018-01-04T20:14:16.833Z,99.90
2018-01-04T20:16:44.470Z,99.90
2018-01-04T20:19:12.078Z,99.90
2018-01-04T20:21:39.825Z,99.90
2018-01-04T20:24:08.213Z,99.90
2018-01-04T20:26:35.822Z,99.90
2018-01-04T20:29:03.462Z,99.90
2018-01-04T20:31:31.070Z,99.90
2018-01-04T20:33:58.733Z,99.90
2018-01-04T20:36:26.332Z,99.90
2018-01-04T20:38:53.963Z,99.90
2018-01-04T20:41:22.365Z,99.90
2018-01-04T20:43:50.782Z,99.90
2018-01-04T20:46:18.425Z,99.90
2018-01-04T20:48:46.797Z,99.90
2018-01-04T20:51:14.410Z,99.90
2018-01-04T20:53:42.069Z,99.90
2018-01-04T20:56:10.445Z,99.90
2018-01-04T20:58:38.855Z,99.90
2018-01-04T21:01:07.226Z,99.90
2018-01-04T21:03:34.841Z,99.90
2018-01-04T21:06:02.478Z,99.90
2018-01-04T21:08:30.867Z,99.90
2018-01-04T21:10:58.518Z,99.90
2018-01-04T21:13:26.125Z,99.90
2018-01-04T21:15:54.540Z,99.90
2018-01-04T21:18:22.210Z,99.90
2018-01-04T21:20:49.818Z,99.90
2018-01-04T21:23:17.456Z,99.90
2018-01-04T21:25:45.067Z,99.90
2018-01-04T21:28:12.679Z,99.90
2018-01-04T21:30:41.093Z,99.90
2018-01-04T21:33:08.702Z,99.90
2018-01-04T21:35:36.353Z,99.90
2018-01-04T21:38:03.970Z,99.90
2018-01-04T21:40:31.591Z,99.90
2018-01-04T21:42:59.236Z,99.90
2018-01-04T21:45:26.858Z,99.90
2018-01-04T21:47:54.509Z,99.90
2018-01-04T21:50:22.894Z,99.90
2018-01-04T21:52:51.270Z,99.70
2018-01-04T21:55:18.906Z,99.60
2018-01-04T21:57:46.511Z,97.30
2018-01-04T22:00:14.153Z,97.50
2018-01-04T22:02:41.794Z,98.60
2018-01-04T22:05:09.426Z,98.50
2018-01-04T22:07:37.065Z,99.80
2018-01-04T22:10:04.673Z,99.30
2018-01-04T22:12:32.312Z,98.90
2018-01-04T22:14:59.914Z,99.20
2018-01-04T22:17:27.529Z,99.60
2018-01-04T22:19:55.934Z,98.40
2018-01-04T22:22:23.550Z,98.50
2018-01-04T22:24:51.211Z,99.80
2018-01-04T22:27:18.870Z,99.20
2018-01-04T22:29:46.481Z,98.60
2018-01-04T22:32:14.259Z,97.20
2018-01-04T22:34:42.730Z,96.80
2018-01-04T22:37:10.417Z,97.00
2018-01-04T22:39:38.405Z,96.50
2018-01-04T22:42:06.009Z,96.40
2018-01-04T22:44:34.555Z,97.00
2018-01-04T22:47:02.183Z,97.00
2018-01-04T22:49:30.590Z,97.90
2018-01-04T22:51:58.209Z,97.80
2018-01-04T22:54:25.821Z,98.50
2018-01-04T22:56:53.474Z,99.10
2018-01-04T22:59:21.090Z,99.90
2018-01-04T23:01:48.734Z,99.90
2018-01-04T23:04:17.125Z,99.90
2018-01-04T23:06:44.733Z,99.90
2018-01-04T23:09:12.375Z,99.90
2018-01-04T23:11:39.981Z,99.90
2018-01-04T23:14:07.678Z,99.90
2018-01-04T23:16:35.283Z,99.90
2018-01-04T23:19:02.900Z,99.90
2018-01-04T23:21:30.591Z,99.90
2018-01-04T23:23:58.168Z,99.90
2018-01-04T23:26:25.955Z,99.90
2018-01-04T23:28:53.566Z,99.90
2018-01-04T23:31:21.175Z,99.90
2018-01-04T23:33:48.830Z,99.90
2018-01-04T23:36:17.202Z,99.90
2018-01-04T23:38:44.813Z,99.90
2018-01-04T23:41:12.450Z,99.90
2018-01-04T23:43:40.072Z,99.90
2018-01-04T23:46:07.685Z,99.90
2018-01-04T23:48:35.329Z,99.90
2018-01-04T23:51:02.944Z,99.90
2018-01-04T23:53:30.559Z,99.90
2018-01-04T23:55:58.194Z,99.90
2018-01-04T23:58:25.807Z,99.90
